VLG4ZZ GCRR-LEMG
Flight info
| Callsign | VLG4ZZ |
|---|---|
| Flight time | N/A |
| Altitude | 38000 |
| Route | KORAL UG5 SONSO DCT ADUBI DCT VJF |
| Aircraft | A20N/M-SDFGHILORVWXY/LB1 |
Departure
| Time | 2026-05-07 14:27 |
|---|---|
| Airport | César Manrique-Lanzarote Airport (GCRR) |
Arrival
| Time | N/A |
|---|---|
| Airport | Málaga-Costa del Sol Airport (LEMG) |
| Time | Latitude | Longitude | Altitude | Speed | Heading |
|---|---|---|---|---|---|
| 2026-05-07 14:19 | 28.95048 | -13.60614 | 81 ft | 0 kts | 207° |
| 2026-05-07 14:20 | 28.95041 | -13.60618 | 81 ft | 3 kts | 207° |
| 2026-05-07 14:20 | 28.95007 | -13.60637 | 81 ft | 7 kts | 207° |
| 2026-05-07 14:20 | 28.94943 | -13.60675 | 79 ft | 11 kts | 206° |
| 2026-05-07 14:21 | 28.94889 | -13.60625 | 74 ft | 14 kts | 116° |
| 2026-05-07 14:21 | 28.94814 | -13.60572 | 66 ft | 15 kts | 207° |
| 2026-05-07 14:21 | 28.94711 | -13.60632 | 64 ft | 17 kts | 207° |
| 2026-05-07 14:21 | 28.94600 | -13.60697 | 61 ft | 19 kts | 207° |
| 2026-05-07 14:22 | 28.94474 | -13.60769 | 57 ft | 21 kts | 206° |
| 2026-05-07 14:22 | 28.94341 | -13.60848 | 54 ft | 21 kts | 207° |
| 2026-05-07 14:22 | 28.94201 | -13.60928 | 51 ft | 22 kts | 206° |
| 2026-05-07 14:22 | 28.94059 | -13.61011 | 50 ft | 22 kts | 207° |
| 2026-05-07 14:23 | 28.93920 | -13.61092 | 49 ft | 22 kts | 207° |
| 2026-05-07 14:23 | 28.93783 | -13.61170 | 50 ft | 21 kts | 207° |
| 2026-05-07 14:23 | 28.93690 | -13.61221 | 49 ft | 5 kts | 192° |
| 2026-05-07 14:23 | 28.93677 | -13.61222 | 49 ft | 0 kts | 176° |
| 2026-05-07 14:24 | 28.93668 | -13.61221 | 49 ft | 2 kts | 168° |
| 2026-05-07 14:25 | 28.93642 | -13.61189 | 47 ft | 8 kts | 118° |
| 2026-05-07 14:25 | 28.93613 | -13.61115 | 43 ft | 12 kts | 106° |
| 2026-05-07 14:25 | 28.93637 | -13.61051 | 40 ft | 7 kts | 24° |
| 2026-05-07 14:25 | 28.93658 | -13.61040 | 40 ft | 1 kts | 26° |
| 2026-05-07 14:26 | 28.93662 | -13.61037 | 40 ft | 0 kts | 27° |
| 2026-05-07 14:26 | 28.93663 | -13.61037 | 40 ft | 0 kts | 27° |
| 2026-05-07 14:26 | 28.93763 | -13.60979 | 39 ft | 49 kts | 26° |
| 2026-05-07 14:26 | 28.94299 | -13.60667 | 43 ft | 121 kts | 27° |
| 2026-05-07 14:27 | 28.95232 | -13.60123 | 167 ft | 167 kts | 29° |
| 2026-05-07 14:27 | 28.96247 | -13.59479 | 791 ft | 171 kts | 35° |
| 2026-05-07 14:27 | 28.97171 | -13.58648 | 1569 ft | 171 kts | 39° |
| 2026-05-07 14:27 | 28.98091 | -13.57809 | 2277 ft | 176 kts | 36° |
| 2026-05-07 14:28 | 28.99112 | -13.56926 | 2801 ft | 193 kts | 35° |
| 2026-05-07 14:28 | 29.00238 | -13.55965 | 3280 ft | 211 kts | 35° |
| 2026-05-07 14:28 | 29.01428 | -13.54840 | 3692 ft | 235 kts | 42° |
| 2026-05-07 14:28 | 29.02653 | -13.53488 | 4230 ft | 252 kts | 37° |
| 2026-05-07 14:29 | 29.04111 | -13.52290 | 4879 ft | 265 kts | 32° |
| 2026-05-07 14:29 | 29.05652 | -13.51117 | 5688 ft | 271 kts | 31° |
| 2026-05-07 14:29 | 29.07231 | -13.49897 | 6502 ft | 277 kts | 32° |
| 2026-05-07 14:29 | 29.08825 | -13.48638 | 7290 ft | 283 kts | 32° |
| 2026-05-07 14:30 | 29.10429 | -13.47352 | 8079 ft | 288 kts | 32° |
| 2026-05-07 14:30 | 29.12085 | -13.46020 | 8848 ft | 293 kts | 33° |
| 2026-05-07 14:30 | 29.13747 | -13.44673 | 9604 ft | 298 kts | 33° |
| 2026-05-07 14:30 | 29.15447 | -13.43286 | 10291 ft | 305 kts | 33° |
| 2026-05-07 14:31 | 29.17220 | -13.41837 | 10738 ft | 321 kts | 33° |
| 2026-05-07 14:31 | 29.19083 | -13.40312 | 11261 ft | 333 kts | 33° |
| 2026-05-07 14:31 | 29.20948 | -13.38775 | 11937 ft | 338 kts | 33° |
| 2026-05-07 14:31 | 29.22873 | -13.37192 | 12599 ft | 343 kts | 33° |
| 2026-05-07 14:32 | 29.24814 | -13.35596 | 13247 ft | 348 kts | 33° |
| 2026-05-07 14:32 | 29.26723 | -13.33857 | 13867 ft | 354 kts | 41° |
| 2026-05-07 14:32 | 29.28401 | -13.31762 | 14503 ft | 360 kts | 51° |
| 2026-05-07 14:32 | 29.29873 | -13.29438 | 15094 ft | 365 kts | 54° |
| 2026-05-07 14:33 | 29.31324 | -13.27006 | 15664 ft | 371 kts | 55° |
| 2026-05-07 14:33 | 29.32773 | -13.24574 | 16249 ft | 375 kts | 55° |
| 2026-05-07 14:33 | 29.34272 | -13.22083 | 16808 ft | 380 kts | 54° |
| 2026-05-07 14:33 | 29.35772 | -13.19611 | 17362 ft | 385 kts | 54° |
| 2026-05-07 14:34 | 29.37311 | -13.17082 | 17901 ft | 390 kts | 54° |
| 2026-05-07 14:34 | 29.38885 | -13.14497 | 18458 ft | 394 kts | 54° |
| 2026-05-07 14:34 | 29.40457 | -13.11915 | 19022 ft | 398 kts | 54° |
| 2026-05-07 14:34 | 29.42040 | -13.09310 | 19570 ft | 402 kts | 54° |
| 2026-05-07 14:35 | 29.43625 | -13.06703 | 20098 ft | 406 kts | 54° |
| 2026-05-07 14:35 | 29.45243 | -13.04039 | 20651 ft | 409 kts | 54° |
| 2026-05-07 14:35 | 29.46879 | -13.01343 | 21220 ft | 411 kts | 53° |
| 2026-05-07 14:35 | 29.48523 | -12.98631 | 21736 ft | 415 kts | 54° |
| 2026-05-07 14:36 | 29.50163 | -12.95922 | 22222 ft | 420 kts | 53° |
| 2026-05-07 14:36 | 29.51836 | -12.93159 | 22744 ft | 423 kts | 54° |
| 2026-05-07 14:36 | 29.53521 | -12.90371 | 23289 ft | 425 kts | 53° |
| 2026-05-07 14:36 | 29.55194 | -12.87602 | 23796 ft | 428 kts | 53° |
| 2026-05-07 14:37 | 29.56893 | -12.84788 | 24291 ft | 432 kts | 53° |
| 2026-05-07 14:37 | 29.60332 | -12.79095 | 25316 ft | 437 kts | 53° |
| 2026-05-07 14:37 | 29.62085 | -12.76190 | 25796 ft | 440 kts | 53° |
| 2026-05-07 14:38 | 29.63812 | -12.73323 | 26272 ft | 443 kts | 53° |
| 2026-05-07 14:38 | 29.65572 | -12.70401 | 26721 ft | 446 kts | 52° |
| 2026-05-07 14:38 | 29.67349 | -12.67449 | 27160 ft | 449 kts | 52° |
| 2026-05-07 14:38 | 29.69113 | -12.64520 | 27608 ft | 451 kts | 53° |
| 2026-05-07 14:39 | 29.70887 | -12.61568 | 28037 ft | 453 kts | 52° |
| 2026-05-07 14:39 | 29.72684 | -12.58575 | 28449 ft | 455 kts | 53° |
| 2026-05-07 14:39 | 29.74485 | -12.55561 | 28803 ft | 458 kts | 53° |
| 2026-05-07 14:39 | 29.76274 | -12.52537 | 29165 ft | 461 kts | 53° |
| 2026-05-07 14:40 | 29.78077 | -12.49485 | 29492 ft | 464 kts | 53° |
| 2026-05-07 14:40 | 29.79899 | -12.46399 | 29864 ft | 465 kts | 53° |
| 2026-05-07 14:40 | 29.81704 | -12.43342 | 30215 ft | 467 kts | 53° |
| 2026-05-07 14:40 | 29.83541 | -12.40225 | 30521 ft | 469 kts | 53° |
| 2026-05-07 14:41 | 29.85370 | -12.37128 | 30819 ft | 471 kts | 53° |
| 2026-05-07 14:41 | 29.87217 | -12.33998 | 31108 ft | 473 kts | 53° |
| 2026-05-07 14:41 | 29.89056 | -12.30866 | 31353 ft | 476 kts | 53° |
| 2026-05-07 14:41 | 29.90900 | -12.27720 | 31614 ft | 478 kts | 53° |
| 2026-05-07 14:42 | 29.92777 | -12.24522 | 31880 ft | 479 kts | 53° |
| 2026-05-07 14:42 | 29.94643 | -12.21348 | 32136 ft | 481 kts | 53° |
| 2026-05-07 14:42 | 29.96505 | -12.18180 | 32367 ft | 483 kts | 53° |
| 2026-05-07 14:42 | 29.98462 | -12.15021 | 32587 ft | 483 kts | 50° |
| 2026-05-07 14:43 | 30.00581 | -12.11995 | 32837 ft | 483 kts | 45° |
| 2026-05-07 14:43 | 30.02830 | -12.09175 | 33147 ft | 480 kts | 41° |
| 2026-05-07 14:43 | 30.05228 | -12.06527 | 33460 ft | 477 kts | 37° |
| 2026-05-07 14:43 | 30.07776 | -12.04047 | 33773 ft | 475 kts | 34° |
| 2026-05-07 14:44 | 30.10359 | -12.01689 | 34065 ft | 474 kts | 33° |
| 2026-05-07 14:44 | 30.12962 | -11.99346 | 34384 ft | 473 kts | 33° |
| 2026-05-07 14:44 | 30.15526 | -11.97039 | 34709 ft | 471 kts | 33° |
| 2026-05-07 14:44 | 30.18128 | -11.94688 | 35044 ft | 470 kts | 33° |
| 2026-05-07 14:45 | 30.20671 | -11.92376 | 35337 ft | 469 kts | 33° |
| 2026-05-07 14:45 | 30.23249 | -11.90026 | 35619 ft | 468 kts | 33° |
| 2026-05-07 14:45 | 30.25767 | -11.87721 | 35924 ft | 467 kts | 33° |
| 2026-05-07 14:45 | 30.28331 | -11.85373 | 36232 ft | 465 kts | 33° |
| 2026-05-07 14:46 | 30.30835 | -11.83076 | 36505 ft | 464 kts | 33° |
| 2026-05-07 14:46 | 30.33363 | -11.80753 | 36772 ft | 462 kts | 33° |
| 2026-05-07 14:46 | 30.35889 | -11.78431 | 37036 ft | 461 kts | 32° |
| 2026-05-07 14:46 | 30.38372 | -11.76147 | 37273 ft | 460 kts | 32° |
| 2026-05-07 14:47 | 30.40876 | -11.73845 | 37447 ft | 460 kts | 32° |
| 2026-05-07 14:47 | 30.43381 | -11.71539 | 37648 ft | 460 kts | 32° |
| 2026-05-07 14:47 | 30.48406 | -11.66913 | 37804 ft | 464 kts | 32° |
| 2026-05-07 14:48 | 30.53486 | -11.62227 | 37899 ft | 469 kts | 32° |
| 2026-05-07 14:48 | 30.58613 | -11.57488 | 37959 ft | 474 kts | 32° |
| 2026-05-07 14:49 | 30.63804 | -11.52684 | 37973 ft | 479 kts | 32° |
| 2026-05-07 14:49 | 30.69033 | -11.47839 | 37984 ft | 483 kts | 33° |
| 2026-05-07 14:50 | 30.74275 | -11.42973 | 37972 ft | 487 kts | 33° |
| 2026-05-07 14:50 | 30.79609 | -11.38015 | 37980 ft | 491 kts | 33° |
| 2026-05-07 14:51 | 30.84945 | -11.33040 | 37983 ft | 493 kts | 33° |
| 2026-05-07 14:51 | 30.90255 | -11.28052 | 37988 ft | 493 kts | 34° |
| 2026-05-07 14:52 | 30.95480 | -11.23155 | 37986 ft | 492 kts | 34° |
| 2026-05-07 14:52 | 31.00837 | -11.18140 | 37992 ft | 493 kts | 33° |
| 2026-05-07 14:53 | 31.06170 | -11.13145 | 37983 ft | 492 kts | 34° |
| 2026-05-07 14:53 | 31.11485 | -11.08160 | 37980 ft | 492 kts | 34° |
| 2026-05-07 14:54 | 31.16845 | -11.03155 | 37967 ft | 491 kts | 33° |
| 2026-05-07 14:54 | 31.22186 | -10.98146 | 37968 ft | 492 kts | 33° |
| 2026-05-07 14:55 | 31.27489 | -10.93156 | 37967 ft | 492 kts | 33° |
| 2026-05-07 14:55 | 31.32793 | -10.88155 | 37974 ft | 493 kts | 34° |